Time;durP1;ratioP1;P1;durP2;ratioP2;P2;SDS_P1;SDS_P2;PMS_P1;PMS_P2;Temp;Humidity;BMP_temperature;BMP_pressure;BME280_temperature;BME280_humidity;BME280_pressure;Samples;Min_cycle;Max_cycle;Signal;HPM_P1;HPM_P2
2021/11/22 00:00:37;;;;;;;;;;;4.80;99.90;;;;;;5092612;28;20353;-86
2021/11/22 00:03:05;;;;;;;;;;;4.80;99.90;;;;;;5092324;28;20384;-86
2021/11/22 00:05:30;;;;;;;;;;;4.80;99.90;;;;;;5093782;28;19904;-84
2021/11/22 00:07:56;;;;;;;;;;;4.90;99.90;;;;;;5092354;28;20433;-86
2021/11/22 00:10:21;;;;;;;;;;;4.80;99.90;;;;;;5092545;28;19904;-86
2021/11/22 00:12:47;;;;;;;;;;;4.70;99.90;;;;;;5092384;28;19904;-85
2021/11/22 00:15:15;;;;;;;;;;;4.70;99.90;;;;;;5087468;28;19904;-85
2021/11/22 00:17:41;;;;;;;;;;;4.80;99.90;;;;;;5092383;28;19903;-86
2021/11/22 00:20:08;;;;;;;;;;;4.80;99.90;;;;;;5092342;28;19908;-86
2021/11/22 00:22:34;;;;;;;;;;;4.90;99.90;;;;;;5093683;28;19904;-86
2021/11/22 00:25:00;;;;;;;;;;;4.90;99.90;;;;;;5092153;28;19934;-84
2021/11/22 00:27:26;;;;;;;;;;;4.90;99.90;;;;;;5092413;28;19908;-85
2021/11/22 00:29:51;;;;;;;;;;;4.80;99.90;;;;;;5094242;28;20009;-85
2021/11/22 00:32:17;;;;;;;;;;;4.80;99.90;;;;;;5096518;28;20269;-85
2021/11/22 00:34:44;;;;;;;;;;;4.80;99.90;;;;;;5099090;28;20270;-84
2021/11/22 00:37:14;;;;;;;;;;;4.90;99.90;;;;;;5100315;28;20320;-85
2021/11/22 00:39:40;;;;;;;;;;;4.80;99.90;;;;;;5098991;28;20422;-85
2021/11/22 00:42:06;;;;;;;;;;;4.90;99.90;;;;;;5098890;28;19954;-85
2021/11/22 00:44:31;;;;;;;;;;;4.90;99.90;;;;;;5098862;28;20038;-85
2021/11/22 00:46:57;;;;;;;;;;;4.90;99.90;;;;;;5098737;28;20385;-85
2021/11/22 00:49:23;;;;;;;;;;;4.80;99.90;;;;;;5098911;28;19916;-85
2021/11/22 00:51:48;;;;;;;;;;;4.90;99.90;;;;;;5098775;28;19911;-85
2021/11/22 00:54:14;;;;;;;;;;;4.90;99.90;;;;;;5098868;28;19949;-85
2021/11/22 00:56:39;;;;;;;;;;;4.80;99.90;;;;;;5098760;28;19915;-85
2021/11/22 00:59:05;;;;;;;;;;;4.80;99.90;;;;;;5100110;28;19930;-85
2021/11/22 01:01:31;;;;;;;;;;;4.80;99.90;;;;;;5098777;28;19911;-85
2021/11/22 01:03:56;;;;;;;;;;;4.80;99.90;;;;;;5098692;28;19998;-85
2021/11/22 01:06:22;;;;;;;;;;;4.90;99.90;;;;;;5098672;28;19904;-85
2021/11/22 01:08:47;;;;;;;;;;;4.80;99.90;;;;;;5098677;28;19965;-84
2021/11/22 01:11:13;;;;;;;;;;;4.80;99.90;;;;;;5093700;28;19911;-85
2021/11/22 01:13:39;;;;;;;;;;;4.80;99.90;;;;;;5099943;28;20355;-85
2021/11/22 01:16:05;;;;;;;;;;;4.80;99.90;;;;;;5098523;28;19908;-85
2021/11/22 01:18:30;;;;;;;;;;;4.80;99.90;;;;;;5098573;28;19915;-85
2021/11/22 01:20:56;;;;;;;;;;;4.80;99.90;;;;;;5098475;28;19908;-85
2021/11/22 01:23:22;;;;;;;;;;;4.70;99.90;;;;;;5098393;28;20382;-85
2021/11/22 01:25:48;;;;;;;;;;;4.80;99.90;;;;;;5099874;28;19957;-85
2021/11/22 01:28:13;;;;;;;;;;;4.80;99.90;;;;;;5098503;28;19911;-86
2021/11/22 01:30:39;;;;;;;;;;;4.80;99.90;;;;;;5098392;28;19904;-85
2021/11/22 01:33:05;;;;;;;;;;;4.80;99.90;;;;;;5098431;28;19904;-85
2021/11/22 01:35:30;;;;;;;;;;;4.80;99.90;;;;;;5098414;28;19995;-85
2021/11/22 01:37:56;;;;;;;;;;;4.80;99.90;;;;;;5098230;28;20349;-85
2021/11/22 01:40:23;;;;;;;;;;;4.80;99.90;;;;;;5098384;28;19949;-85
2021/11/22 01:42:50;;;;;;;;;;;4.80;99.90;;;;;;5098979;28;20375;-85
2021/11/22 01:45:16;;;;;;;;;;;4.80;99.90;;;;;;5095372;28;19999;-85
2021/11/22 01:47:42;;;;;;;;;;;4.80;99.90;;;;;;5096948;28;19969;-85
2021/11/22 01:50:10;;;;;;;;;;;4.80;99.90;;;;;;5098363;28;19911;-85
2021/11/22 01:52:39;;;;;;;;;;;4.70;99.90;;;;;;5098336;28;19960;-85
2021/11/22 01:55:06;;;;;;;;;;;4.80;99.90;;;;;;5098297;28;19903;-85
2021/11/22 01:57:32;;;;;;;;;;;4.90;99.90;;;;;;5098302;28;19911;-85
2021/11/22 01:59:58;;;;;;;;;;;4.90;99.90;;;;;;5098331;28;20397;-85
2021/11/22 02:02:24;;;;;;;;;;;5.00;99.90;;;;;;5098224;28;19904;-85
2021/11/22 02:04:49;;;;;;;;;;;5.00;99.90;;;;;;5098028;28;19914;-85
2021/11/22 02:07:15;;;;;;;;;;;5.00;99.90;;;;;;5098151;28;19953;-85
2021/11/22 02:09:40;;;;;;;;;;;5.00;99.90;;;;;;5098071;28;19903;-84
2021/11/22 02:12:06;;;;;;;;;;;4.90;99.90;;;;;;5098088;28;20294;-83
2021/11/22 02:14:33;;;;;;;;;;;4.90;99.90;;;;;;5097959;28;19910;-84
2021/11/22 02:16:58;;;;;;;;;;;4.90;99.90;;;;;;5097827;28;20355;-85
2021/11/22 02:19:24;;;;;;;;;;;4.90;99.90;;;;;;5097870;28;19987;-85
2021/11/22 02:21:49;;;;;;;;;;;4.90;99.90;;;;;;5097801;28;20279;-85
2021/11/22 02:24:15;;;;;;;;;;;4.90;99.90;;;;;;5097635;28;19915;-85
2021/11/22 02:26:40;;;;;;;;;;;4.80;99.90;;;;;;5097753;28;20045;-85
2021/11/22 02:29:07;;;;;;;;;;;4.80;99.90;;;;;;5097795;28;20289;-84
2021/11/22 02:31:33;;;;;;;;;;;4.80;99.90;;;;;;5097587;28;20230;-82
2021/11/22 02:33:58;;;;;;;;;;;4.80;99.90;;;;;;5097540;28;19910;-84
2021/11/22 02:36:24;;;;;;;;;;;4.70;99.90;;;;;;5097567;28;19934;-84
2021/11/22 02:38:50;;;;;;;;;;;4.70;99.90;;;;;;5097471;28;19987;-84
2021/11/22 02:41:16;;;;;;;;;;;4.70;99.90;;;;;;5116098;28;19910;-85
2021/11/22 02:43:42;;;;;;;;;;;4.80;99.90;;;;;;5097355;28;19994;-85
2021/11/22 02:46:08;;;;;;;;;;;4.80;99.90;;;;;;5097510;28;19909;-85
2021/11/22 02:48:34;;;;;;;;;;;4.80;99.90;;;;;;5097275;28;19938;-85
2021/11/22 02:51:00;;;;;;;;;;;4.70;99.90;;;;;;5097227;28;19907;-85
2021/11/22 02:53:26;;;;;;;;;;;4.70;99.90;;;;;;5097150;28;19998;-84
2021/11/22 02:56:06;;;;;;;;;;;4.80;99.90;;;;;;5096703;28;20425;-85
2021/11/22 02:58:33;;;;;;;;;;;4.70;99.90;;;;;;5115751;28;19982;-85
2021/11/22 03:00:58;;;;;;;;;;;4.70;99.90;;;;;;5097023;28;19904;-85
2021/11/22 03:03:28;;;;;;;;;;;4.70;99.90;;;;;;5115281;28;19914;-84
2021/11/22 03:06:12;;;;;;;;;;;4.80;99.90;;;;;;5115261;28;20029;-85
2021/11/22 03:08:39;;;;;;;;;;;4.80;99.90;;;;;;5096806;28;19904;-85
2021/11/22 03:11:05;;;;;;;;;;;4.70;99.90;;;;;;5096905;28;19908;-85
2021/11/22 03:13:31;;;;;;;;;;;4.70;99.90;;;;;;5115415;28;19956;-85
2021/11/22 03:15:56;;;;;;;;;;;4.80;99.90;;;;;;5096716;28;19911;-85
2021/11/22 03:18:22;;;;;;;;;;;4.80;99.90;;;;;;5115046;28;19904;-84
2021/11/22 03:20:48;;;;;;;;;;;4.80;99.90;;;;;;5115018;28;20278;-85
2021/11/22 03:23:13;;;;;;;;;;;4.90;99.90;;;;;;5096469;28;19907;-85
2021/11/22 03:25:39;;;;;;;;;;;5.00;99.90;;;;;;5114819;28;19935;-84
2021/11/22 03:28:06;;;;;;;;;;;5.00;99.90;;;;;;5096417;28;19904;-84
2021/11/22 03:30:31;;;;;;;;;;;4.90;99.90;;;;;;5096478;28;19903;-84
2021/11/22 03:32:57;;;;;;;;;;;4.90;99.90;;;;;;5096500;28;20301;-84
2021/11/22 03:35:22;;;;;;;;;;;4.80;99.90;;;;;;5115022;28;19928;-85
2021/11/22 03:37:48;;;;;;;;;;;4.80;99.90;;;;;;5096280;28;19904;-85
2021/11/22 03:40:14;;;;;;;;;;;4.80;99.90;;;;;;5096308;28;19911;-85
2021/11/22 03:45:39;;;;;;;;;;;4.70;99.90;;;;;;5080013;28;20332;-85
2021/11/22 03:48:05;;;;;;;;;;;4.80;99.90;;;;;;5095912;28;19919;-85
2021/11/22 03:50:31;;;;;;;;;;;4.80;99.90;;;;;;5096157;28;19910;-85
2021/11/22 03:52:57;;;;;;;;;;;4.70;99.90;;;;;;5114406;28;19908;-85
2021/11/22 03:55:22;;;;;;;;;;;4.80;99.90;;;;;;5096087;28;19910;-85
2021/11/22 03:57:48;;;;;;;;;;;4.80;99.90;;;;;;5096017;28;19993;-85
2021/11/22 04:00:14;;;;;;;;;;;4.90;99.90;;;;;;5096016;28;20346;-84
2021/11/22 04:02:40;;;;;;;;;;;4.90;99.90;;;;;;5114270;28;19904;-84
2021/11/22 04:05:06;;;;;;;;;;;4.80;99.90;;;;;;5095857;28;20301;-84
2021/11/22 04:07:32;;;;;;;;;;;4.80;99.90;;;;;;5095010;28;20354;-84
2021/11/22 04:09:57;;;;;;;;;;;4.90;99.90;;;;;;5095842;28;19999;-84
2021/11/22 04:12:23;;;;;;;;;;;4.90;99.90;;;;;;5095879;28;20354;-84
2021/11/22 04:14:49;;;;;;;;;;;4.80;99.90;;;;;;5095854;28;19911;-85
2021/11/22 04:17:15;;;;;;;;;;;4.80;99.90;;;;;;5095766;28;20305;-84
2021/11/22 04:19:40;;;;;;;;;;;4.90;99.90;;;;;;5095696;28;19904;-84
2021/11/22 04:22:06;;;;;;;;;;;4.90;99.90;;;;;;5114066;28;19911;-84
2021/11/22 04:24:31;;;;;;;;;;;4.90;99.90;;;;;;5095566;28;19908;-84
2021/11/22 04:26:57;;;;;;;;;;;4.80;99.90;;;;;;5095620;28;19908;-85
2021/11/22 04:29:23;;;;;;;;;;;4.90;99.90;;;;;;5095623;28;19935;-84
2021/11/22 04:31:49;;;;;;;;;;;5.00;99.90;;;;;;5095621;28;19904;-85
2021/11/22 04:34:14;;;;;;;;;;;5.00;99.90;;;;;;5095523;28;19911;-84
2021/11/22 04:36:40;;;;;;;;;;;5.00;99.90;;;;;;5095535;28;19908;-84
2021/11/22 04:39:05;;;;;;;;;;;4.80;99.90;;;;;;5095489;28;19981;-84
2021/11/22 04:41:31;;;;;;;;;;;4.80;99.90;;;;;;5095525;28;19903;-84
2021/11/22 04:43:57;;;;;;;;;;;4.80;99.90;;;;;;5095454;28;19954;-84
2021/11/22 04:46:22;;;;;;;;;;;4.80;99.90;;;;;;5095391;28;20313;-84
2021/11/22 04:48:48;;;;;;;;;;;4.80;99.90;;;;;;5095223;28;19916;-83
2021/11/22 04:51:13;;;;;;;;;;;4.80;99.90;;;;;;5095358;28;19908;-84
2021/11/22 04:53:39;;;;;;;;;;;4.90;99.90;;;;;;5095416;28;20327;-84
2021/11/22 04:56:04;;;;;;;;;;;4.90;99.90;;;;;;5095327;28;19946;-84
2021/11/22 04:58:30;;;;;;;;;;;4.90;99.90;;;;;;5095397;28;20014;-83
2021/11/22 05:00:56;;;;;;;;;;;4.90;99.90;;;;;;5095257;28;19903;-83
2021/11/22 05:03:22;;;;;;;;;;;4.90;99.90;;;;;;5095318;28;19914;-83
2021/11/22 05:05:48;;;;;;;;;;;4.90;99.90;;;;;;5095231;28;19903;-83
2021/11/22 05:08:13;;;;;;;;;;;4.80;99.90;;;;;;5113576;28;19996;-83
2021/11/22 05:10:43;;;;;;;;;;;4.80;99.90;;;;;;5095254;28;19986;-83
2021/11/22 05:13:10;;;;;;;;;;;4.90;99.90;;;;;;5095149;28;19963;-83
2021/11/22 05:15:37;;;;;;;;;;;4.90;99.90;;;;;;5095456;28;19910;-83
2021/11/22 05:18:03;;;;;;;;;;;4.90;99.90;;;;;;5114811;28;19910;-83
2021/11/22 05:20:29;;;;;;;;;;;4.90;99.90;;;;;;5099099;28;19998;-84
2021/11/22 05:22:55;;;;;;;;;;;5.00;99.90;;;;;;5099123;28;19911;-83
2021/11/22 05:25:21;;;;;;;;;;;5.00;99.90;;;;;;5098927;28;19904;-83
2021/11/22 05:27:47;;;;;;;;;;;5.00;99.90;;;;;;5098781;28;19907;-83
2021/11/22 05:30:13;;;;;;;;;;;4.90;99.90;;;;;;5098730;28;20281;-83
2021/11/22 05:32:38;;;;;;;;;;;4.90;99.90;;;;;;5098672;28;19956;-83
2021/11/22 05:35:04;;;;;;;;;;;4.90;99.90;;;;;;5098714;28;19904;-83
2021/11/22 05:37:31;;;;;;;;;;;4.90;99.90;;;;;;5116984;28;19926;-83
2021/11/22 05:39:57;;;;;;;;;;;5.00;99.90;;;;;;5098549;28;19907;-83
2021/11/22 05:42:22;;;;;;;;;;;5.00;99.90;;;;;;5116888;28;20363;-82
2021/11/22 05:44:48;;;;;;;;;;;4.90;99.90;;;;;;5098447;28;20419;-82
2021/11/22 05:47:14;;;;;;;;;;;4.80;99.90;;;;;;5098330;28;19998;-82
2021/11/22 05:49:39;;;;;;;;;;;4.90;99.90;;;;;;5098457;28;19916;-83
2021/11/22 05:52:06;;;;;;;;;;;4.90;99.90;;;;;;5116686;28;20399;-82
2021/11/22 05:54:32;;;;;;;;;;;4.90;99.90;;;;;;5098310;28;20415;-82
2021/11/22 05:56:59;;;;;;;;;;;4.90;99.90;;;;;;5098227;28;19953;-83
2021/11/22 05:59:24;;;;;;;;;;;4.90;99.90;;;;;;5116847;28;20375;-82
2021/11/22 06:01:51;;;;;;;;;;;5.00;99.90;;;;;;5098207;28;19908;-82
2021/11/22 06:04:16;;;;;;;;;;;5.00;99.90;;;;;;5097918;28;19907;-82
2021/11/22 06:06:42;;;;;;;;;;;4.90;99.90;;;;;;5098131;28;19952;-82
2021/11/22 06:09:08;;;;;;;;;;;4.90;99.90;;;;;;5116394;28;19903;-82
2021/11/22 06:11:33;;;;;;;;;;;4.90;99.90;;;;;;5097935;28;19910;-82
2021/11/22 06:13:59;;;;;;;;;;;4.90;99.90;;;;;;5098371;28;19904;-82
2021/11/22 06:16:24;;;;;;;;;;;4.90;99.90;;;;;;5097885;28;19904;-82
2021/11/22 06:18:50;;;;;;;;;;;4.90;99.90;;;;;;5097958;28;19904;-82
2021/11/22 06:21:16;;;;;;;;;;;4.80;99.90;;;;;;5097965;28;20406;-82
2021/11/22 06:23:41;;;;;;;;;;;4.80;99.90;;;;;;5116084;28;19911;-82
2021/11/22 06:26:07;;;;;;;;;;;4.80;99.90;;;;;;5097718;28;20312;-82
2021/11/22 06:28:33;;;;;;;;;;;4.90;99.90;;;;;;5097688;28;19931;-82
2021/11/22 06:30:59;;;;;;;;;;;4.90;99.90;;;;;;5115055;28;19904;-82
2021/11/22 06:33:25;;;;;;;;;;;4.80;99.90;;;;;;5097567;28;19911;-82
2021/11/22 06:35:50;;;;;;;;;;;4.80;99.90;;;;;;5115979;28;20236;-82
2021/11/22 06:38:16;;;;;;;;;;;4.80;99.90;;;;;;5097528;28;19911;-82
2021/11/22 06:40:42;;;;;;;;;;;4.80;99.90;;;;;;5097499;28;20223;-82
2021/11/22 06:43:08;;;;;;;;;;;4.80;99.90;;;;;;5097602;28;19911;-82
2021/11/22 06:45:33;;;;;;;;;;;4.80;99.90;;;;;;5115716;28;19904;-82
2021/11/22 06:47:59;;;;;;;;;;;4.80;99.90;;;;;;5097054;28;20012;-82
2021/11/22 06:50:25;;;;;;;;;;;4.80;99.90;;;;;;5097311;28;19960;-82
2021/11/22 06:52:51;;;;;;;;;;;4.80;99.90;;;;;;5097217;28;19904;-82
2021/11/22 06:55:17;;;;;;;;;;;4.80;99.90;;;;;;5097090;28;19903;-82
2021/11/22 06:57:43;;;;;;;;;;;4.90;99.90;;;;;;5097079;28;19903;-82
2021/11/22 07:00:10;;;;;;;;;;;4.90;99.90;;;;;;5097113;28;19904;-82
2021/11/22 07:02:37;;;;;;;;;;;4.90;99.90;;;;;;5097046;28;19918;-82
2021/11/22 07:05:04;;;;;;;;;;;4.80;99.90;;;;;;5097000;28;20347;-82
2021/11/22 07:07:29;;;;;;;;;;;4.80;99.90;;;;;;5096847;28;19910;-82
2021/11/22 07:09:55;;;;;;;;;;;4.80;99.90;;;;;;5096960;28;20341;-83
2021/11/22 07:12:21;;;;;;;;;;;4.90;99.90;;;;;;5115092;28;19904;-82
2021/11/22 07:14:47;;;;;;;;;;;4.90;99.90;;;;;;5096802;28;20271;-83
2021/11/22 07:17:14;;;;;;;;;;;4.90;99.90;;;;;;5096751;28;20009;-82
2021/11/22 07:19:41;;;;;;;;;;;4.90;99.90;;;;;;5097032;28;19904;-82
2021/11/22 07:22:08;;;;;;;;;;;4.90;99.90;;;;;;5096654;28;19910;-82
2021/11/22 07:24:34;;;;;;;;;;;4.90;99.90;;;;;;5096825;28;20007;-83
2021/11/22 07:27:00;;;;;;;;;;;4.90;99.90;;;;;;5114887;28;19903;-82
2021/11/22 07:29:26;;;;;;;;;;;5.00;99.90;;;;;;5096788;28;19946;-82
2021/11/22 07:31:52;;;;;;;;;;;5.00;99.90;;;;;;5096475;28;20378;-82
2021/11/22 07:34:18;;;;;;;;;;;5.00;99.90;;;;;;5096421;28;19907;-82
2021/11/22 07:36:43;;;;;;;;;;;5.00;99.90;;;;;;5096318;28;20439;-82
2021/11/22 07:39:09;;;;;;;;;;;5.00;99.90;;;;;;5096366;28;20385;-83
2021/11/22 07:41:35;;;;;;;;;;;5.10;99.90;;;;;;5096155;28;19904;-82
2021/11/22 07:44:00;;;;;;;;;;;5.10;99.90;;;;;;5097410;28;19908;-90
2021/11/22 07:46:27;;;;;;;;;;;5.10;99.90;;;;;;5097142;28;19908;-90
2021/11/22 07:48:55;;;;;;;;;;;5.00;99.90;;;;;;5117188;28;19920;-90
2021/11/22 07:51:21;;;;;;;;;;;5.00;99.90;;;;;;5082613;28;19907;-90
2021/11/22 07:53:46;;;;;;;;;;;5.10;99.90;;;;;;5097582;28;19907;-90
2021/11/22 07:56:12;;;;;;;;;;;5.00;99.90;;;;;;5097925;28;19904;-89
2021/11/22 07:58:41;;;;;;;;;;;5.00;99.90;;;;;;5097474;28;19903;-89
2021/11/22 08:01:07;;;;;;;;;;;5.00;99.90;;;;;;5098304;28;19961;-93
2021/11/22 08:03:33;;;;;;;;;;;5.00;99.90;;;;;;5098430;28;19911;-92
2021/11/22 08:05:59;;;;;;;;;;;5.10;99.90;;;;;;5115957;28;19910;-91
2021/11/22 08:08:27;;;;;;;;;;;5.10;99.90;;;;;;5097588;28;19969;-91
2021/11/22 08:13:31;;;;;;;;;;;5.10;99.90;;;;;;5115615;28;19926;-91
2021/11/22 08:16:00;;;;;;;;;;;5.10;99.90;;;;;;5097709;28;19907;-91
2021/11/22 08:18:25;;;;;;;;;;;5.10;99.90;;;;;;5097492;28;20345;-91
2021/11/22 08:20:51;;;;;;;;;;;5.20;99.90;;;;;;5115354;28;19935;-90
2021/11/22 08:23:16;;;;;;;;;;;5.20;99.90;;;;;;5097446;28;19912;-90
2021/11/22 08:25:43;;;;;;;;;;;5.20;99.90;;;;;;5097181;28;19912;-90
2021/11/22 08:28:08;;;;;;;;;;;5.20;99.90;;;;;;5097035;28;20378;-91
2021/11/22 08:30:35;;;;;;;;;;;5.20;99.90;;;;;;5097172;28;19911;-91
2021/11/22 08:33:01;;;;;;;;;;;5.20;99.90;;;;;;5115509;28;20350;-91
2021/11/22 08:35:31;;;;;;;;;;;5.10;99.90;;;;;;5097336;28;19964;-91
2021/11/22 08:37:58;;;;;;;;;;;5.20;99.90;;;;;;5115259;28;19915;-91
2021/11/22 08:40:24;;;;;;;;;;;5.20;99.90;;;;;;5097113;28;19908;-91
2021/11/22 08:42:50;;;;;;;;;;;5.20;99.90;;;;;;5115328;28;19953;-91
2021/11/22 08:45:16;;;;;;;;;;;5.20;99.90;;;;;;5097669;28;19898;-91
2021/11/22 08:47:41;;;;;;;;;;;5.20;99.90;;;;;;5097544;28;19949;-90
2021/11/22 08:50:08;;;;;;;;;;;5.20;99.90;;;;;;5099648;28;20324;-90
2021/11/22 08:52:34;;;;;;;;;;;5.20;99.90;;;;;;5097686;28;19904;-91
2021/11/22 08:55:00;;;;;;;;;;;5.20;99.90;;;;;;5100817;28;19926;-90
2021/11/22 08:57:26;;;;;;;;;;;5.30;99.90;;;;;;5100972;28;19903;-91
2021/11/22 08:59:52;;;;;;;;;;;5.20;99.90;;;;;;5100911;28;19911;-92
2021/11/22 09:02:21;;;;;;;;;;;5.30;99.90;;;;;;5119264;28;19907;-91
2021/11/22 09:04:47;;;;;;;;;;;5.30;99.90;;;;;;5101327;28;19964;-91
2021/11/22 09:07:13;;;;;;;;;;;5.30;99.90;;;;;;5101234;28;19948;-92
2021/11/22 09:09:38;;;;;;;;;;;5.30;99.90;;;;;;5119104;28;19907;-90
2021/11/22 09:12:04;;;;;;;;;;;5.30;99.90;;;;;;5100526;28;19904;-92
2021/11/22 09:14:30;;;;;;;;;;;5.30;99.90;;;;;;5101208;28;20343;-92
2021/11/22 09:16:55;;;;;;;;;;;5.30;99.90;;;;;;5119263;28;19888;-92
2021/11/22 09:19:21;;;;;;;;;;;5.30;99.90;;;;;;5101514;28;19938;-93
2021/11/22 09:21:47;;;;;;;;;;;5.40;99.90;;;;;;5101503;28;19923;-92
2021/11/22 09:24:13;;;;;;;;;;;5.40;99.90;;;;;;5109091;28;19919;-92
2021/11/22 09:26:40;;;;;;;;;;;5.40;99.90;;;;;;5124927;28;19919;-93
2021/11/22 09:29:06;;;;;;;;;;;5.40;99.90;;;;;;5101460;28;19911;-92
2021/11/22 09:31:32;;;;;;;;;;;5.40;99.90;;;;;;5100660;28;19986;-92
2021/11/22 09:33:57;;;;;;;;;;;5.40;99.90;;;;;;5119005;28;19915;-92
2021/11/22 09:36:23;;;;;;;;;;;5.40;99.90;;;;;;5100508;28;19904;-93
2021/11/22 09:38:49;;;;;;;;;;;5.50;99.90;;;;;;5118411;28;20304;-91
2021/11/22 09:41:16;;;;;;;;;;;5.40;99.90;;;;;;5100216;28;19911;-92
2021/11/22 09:43:42;;;;;;;;;;;5.40;99.90;;;;;;5101015;28;19908;-92
2021/11/22 09:46:08;;;;;;;;;;;5.40;99.90;;;;;;5100205;28;20388;-93
2021/11/22 09:48:34;;;;;;;;;;;5.40;99.90;;;;;;5099996;28;19919;-92
2021/11/22 09:50:59;;;;;;;;;;;5.40;99.90;;;;;;5100290;28;20418;-92
2021/11/22 09:53:26;;;;;;;;;;;5.40;99.90;;;;;;5100388;28;19908;-93
2021/11/22 09:55:52;;;;;;;;;;;5.40;99.90;;;;;;5100797;28;19921;-92
2021/11/22 09:58:18;;;;;;;;;;;5.40;99.90;;;;;;5100070;28;20015;-93
2021/11/22 10:00:48;;;;;;;;;;;5.40;99.90;;;;;;5102075;28;19908;-91
2021/11/22 10:03:15;;;;;;;;;;;5.50;99.90;;;;;;5121868;28;20277;-92
2021/11/22 10:05:42;;;;;;;;;;;5.50;99.90;;;;;;5118133;28;19904;-94
2021/11/22 10:08:13;;;;;;;;;;;5.50;99.90;;;;;;5118980;28;19915;-92
2021/11/22 10:10:45;;;;;;;;;;;5.50;99.90;;;;;;5099912;28;19910;-92
2021/11/22 10:13:20;;;;;;;;;;;5.50;99.90;;;;;;5101158;28;20278;-93
2021/11/22 10:15:45;;;;;;;;;;;5.50;99.90;;;;;;5100196;28;19904;-92
2021/11/22 10:18:15;;;;;;;;;;;5.50;99.90;;;;;;5101485;28;19958;-93
2021/11/22 10:20:40;;;;;;;;;;;5.60;99.90;;;;;;5118344;28;19936;-93
2021/11/22 10:23:12;;;;;;;;;;;5.60;99.90;;;;;;5100172;28;19994;-92
2021/11/22 10:25:42;;;;;;;;;;;5.60;99.90;;;;;;5099837;28;19914;-92
2021/11/22 10:28:15;;;;;;;;;;;5.50;99.90;;;;;;5101381;28;19971;-93
2021/11/22 10:30:46;;;;;;;;;;;5.50;99.90;;;;;;5100301;28;19935;-93
2021/11/22 10:33:13;;;;;;;;;;;5.60;99.90;;;;;;5100127;28;20255;-93
2021/11/22 10:35:40;;;;;;;;;;;5.60;99.90;;;;;;5099374;28;19910;-93
2021/11/22 10:38:07;;;;;;;;;;;5.60;99.90;;;;;;5099350;28;19910;-92
2021/11/22 10:40:34;;;;;;;;;;;5.60;99.90;;;;;;5100200;28;19904;-94
2021/11/22 10:43:00;;;;;;;;;;;5.60;99.90;;;;;;5100333;28;19912;-93
2021/11/22 10:45:28;;;;;;;;;;;5.60;99.90;;;;;;5099863;28;19915;-94
2021/11/22 10:48:22;;;;;;;;;;;5.60;99.90;;;;;;5099294;28;19911;-93
2021/11/22 10:50:51;;;;;;;;;;;5.60;99.90;;;;;;5098914;28;19907;-93
2021/11/22 10:53:27;;;;;;;;;;;5.60;99.90;;;;;;5098812;28;19910;-93
2021/11/22 10:55:53;;;;;;;;;;;5.60;99.90;;;;;;5099055;28;19904;-92
2021/11/22 10:58:29;;;;;;;;;;;5.60;99.90;;;;;;5098661;28;19949;-92
2021/11/22 11:00:55;;;;;;;;;;;5.60;99.90;;;;;;5098662;28;19935;-93
2021/11/22 11:03:21;;;;;;;;;;;5.60;99.90;;;;;;5116579;28;19911;-93
2021/11/22 11:05:55;;;;;;;;;;;5.60;99.90;;;;;;5116610;28;20334;-92
2021/11/22 11:08:21;;;;;;;;;;;5.60;99.90;;;;;;5098530;28;19998;-93
2021/11/22 11:10:50;;;;;;;;;;;5.60;99.90;;;;;;5098334;28;19954;-93
2021/11/22 11:13:16;;;;;;;;;;;5.60;99.90;;;;;;5098687;28;19953;-92
2021/11/22 11:15:42;;;;;;;;;;;5.60;99.90;;;;;;5097655;28;19903;-93
2021/11/22 11:18:23;;;;;;;;;;;5.70;99.90;;;;;;5098127;28;20358;-93
2021/11/22 11:20:50;;;;;;;;;;;5.60;99.90;;;;;;5097988;28;19915;-93
2021/11/22 11:23:16;;;;;;;;;;;5.60;99.90;;;;;;5098615;28;19911;-93
2021/11/22 11:25:42;;;;;;;;;;;5.50;99.90;;;;;;5099395;28;19904;-93
2021/11/22 11:28:08;;;;;;;;;;;5.50;99.90;;;;;;5098025;28;19904;-88
2021/11/22 11:30:33;;;;;;;;;;;5.50;99.90;;;;;;5096989;28;20357;-88
2021/11/22 11:33:03;;;;;;;;;;;5.50;99.90;;;;;;5096859;28;19904;-87
2021/11/22 11:35:30;;;;;;;;;;;5.50;99.90;;;;;;5096454;28;20277;-87
2021/11/22 11:38:06;;;;;;;;;;;5.50;99.90;;;;;;5096715;28;19986;-87
2021/11/22 11:40:41;;;;;;;;;;;5.50;99.90;;;;;;5096631;28;19947;-87
2021/11/22 11:43:26;;;;;;;;;;;5.50;99.90;;;;;;5096961;28;19904;-87
2021/11/22 11:46:00;;;;;;;;;;;5.50;99.90;;;;;;5115123;28;20332;-87
2021/11/22 11:48:43;;;;;;;;;;;5.50;99.90;;;;;;5096043;28;20003;-87
2021/11/22 11:51:11;;;;;;;;;;;5.50;99.90;;;;;;5096425;28;19987;-87
2021/11/22 11:53:38;;;;;;;;;;;5.50;99.90;;;;;;5096383;28;19914;-87
2021/11/22 11:56:11;;;;;;;;;;;5.50;99.90;;;;;;5114634;28;20008;-87
2021/11/22 11:58:37;;;;;;;;;;;5.50;99.90;;;;;;5114555;28;19910;-87
2021/11/22 12:01:06;;;;;;;;;;;5.60;99.90;;;;;;5095982;28;20394;-86
2021/11/22 12:03:51;;;;;;;;;;;5.60;99.90;;;;;;5096282;28;20021;-86
2021/11/22 12:06:37;;;;;;;;;;;5.50;99.90;;;;;;5095851;28;19904;-88
2021/11/22 12:09:21;;;;;;;;;;;5.50;99.90;;;;;;5096072;28;20344;-87
2021/11/22 12:11:46;;;;;;;;;;;5.50;99.90;;;;;;5095919;28;20270;-87
2021/11/22 12:14:12;;;;;;;;;;;5.60;99.90;;;;;;5096130;28;20003;-87
2021/11/22 12:16:44;;;;;;;;;;;5.60;99.90;;;;;;5096477;28;19910;-87
2021/11/22 12:19:29;;;;;;;;;;;5.60;99.90;;;;;;5095999;28;19904;-88
2021/11/22 12:22:06;;;;;;;;;;;5.60;99.90;;;;;;5095837;28;20010;-87
2021/11/22 12:24:39;;;;;;;;;;;5.60;99.90;;;;;;5095716;28;19908;-87
2021/11/22 12:27:40;;;;;;;;;;;5.60;99.90;;;;;;5095186;28;19910;-87
2021/11/22 12:30:29;;;;;;;;;;;5.50;99.90;;;;;;4995707;28;20312;-88
2021/11/22 12:33:13;;;;;;;;;;;5.50;99.90;;;;;;5081775;28;19904;-87
2021/11/22 12:35:39;;;;;;;;;;;5.50;99.90;;;;;;5095724;28;19908;-87
2021/11/22 12:38:16;;;;;;;;;;;5.50;99.90;;;;;;5095652;28;19911;-87
2021/11/22 12:40:43;;;;;;;;;;;5.40;99.90;;;;;;5095605;28;19904;-87
2021/11/22 12:43:08;;;;;;;;;;;5.40;99.90;;;;;;5095453;28;20007;-87
2021/11/22 12:45:53;;;;;;;;;;;5.50;99.90;;;;;;5095675;28;20391;-87
2021/11/22 12:48:30;;;;;;;;;;;5.50;99.90;;;;;;5095513;28;19961;-86
2021/11/22 12:50:57;;;;;;;;;;;5.40;99.90;;;;;;5096076;28;19904;-87
2021/11/22 12:53:22;;;;;;;;;;;5.50;99.90;;;;;;5113846;28;19904;-87
2021/11/22 12:55:49;;;;;;;;;;;5.50;99.90;;;;;;5095759;28;20278;-88
2021/11/22 12:58:19;;;;;;;;;;;5.50;99.90;;;;;;5095463;28;19904;-87
2021/11/22 13:00:45;;;;;;;;;;;5.60;99.90;;;;;;5095569;28;19907;-87
2021/11/22 13:03:12;;;;;;;;;;;5.60;99.90;;;;;;5095407;28;19904;-87
2021/11/22 13:05:45;;;;;;;;;;;5.60;99.90;;;;;;5095374;28;19908;-88
2021/11/22 13:08:16;;;;;;;;;;;5.60;99.90;;;;;;5095536;28;19947;-87
2021/11/22 13:10:43;;;;;;;;;;;5.60;99.90;;;;;;5095501;28;19910;-87
2021/11/22 13:13:16;;;;;;;;;;;5.50;99.90;;;;;;5095256;28;19958;-87
2021/11/22 13:15:57;;;;;;;;;;;5.50;99.90;;;;;;5095411;28;19903;-87
2021/11/22 13:18:25;;;;;;;;;;;5.60;99.90;;;;;;5095374;28;20003;-87
2021/11/22 13:20:51;;;;;;;;;;;5.50;99.90;;;;;;5113933;28;19904;-88
2021/11/22 13:23:18;;;;;;;;;;;5.50;99.90;;;;;;5095592;28;19904;-88
2021/11/22 13:25:45;;;;;;;;;;;5.50;99.90;;;;;;5095460;28;20372;-88
2021/11/22 13:28:13;;;;;;;;;;;5.50;99.90;;;;;;5095879;28;19904;-89
2021/11/22 13:30:39;;;;;;;;;;;5.50;99.90;;;;;;5095494;28;19952;-88
2021/11/22 13:33:05;;;;;;;;;;;5.50;99.90;;;;;;5114000;28;19991;-89
2021/11/22 13:35:31;;;;;;;;;;;5.50;99.90;;;;;;5095472;28;20386;-88
2021/11/22 13:38:06;;;;;;;;;;;5.50;99.90;;;;;;5095182;28;20056;-88
2021/11/22 13:40:31;;;;;;;;;;;5.50;99.90;;;;;;5098563;28;20278;-87
2021/11/22 13:43:05;;;;;;;;;;;5.50;99.90;;;;;;5098940;28;19907;-87
2021/11/22 13:45:30;;;;;;;;;;;5.50;99.90;;;;;;5099235;28;20365;-87
2021/11/22 13:47:56;;;;;;;;;;;5.50;99.90;;;;;;5098432;28;20006;-87
2021/11/22 13:50:22;;;;;;;;;;;5.40;99.90;;;;;;5117315;28;19952;-87
2021/11/22 13:52:47;;;;;;;;;;;5.40;99.90;;;;;;5098809;28;20281;-87
2021/11/22 13:55:13;;;;;;;;;;;5.40;99.90;;;;;;5098923;28;19906;-88
2021/11/22 13:57:38;;;;;;;;;;;5.40;99.90;;;;;;5116865;28;19946;-87
2021/11/22 14:00:04;;;;;;;;;;;5.40;99.90;;;;;;5099124;28;19908;-87
2021/11/22 14:02:30;;;;;;;;;;;5.50;99.90;;;;;;5116893;28;19904;-87
2021/11/22 14:04:57;;;;;;;;;;;5.50;99.90;;;;;;5098296;28;19907;-87
2021/11/22 14:07:43;;;;;;;;;;;5.50;99.90;;;;;;5116630;28;19903;-88
2021/11/22 14:10:09;;;;;;;;;;;5.50;99.90;;;;;;5097543;28;19911;-87
2021/11/22 14:12:37;;;;;;;;;;;5.40;99.90;;;;;;5098239;28;19904;-87
2021/11/22 14:15:03;;;;;;;;;;;5.50;99.90;;;;;;5098227;28;19904;-88
2021/11/22 14:17:29;;;;;;;;;;;5.40;99.90;;;;;;5074267;28;19911;-88
2021/11/22 14:20:12;;;;;;;;;;;5.40;99.90;;;;;;5057595;28;19904;-87
2021/11/22 14:22:44;;;;;;;;;;;5.40;99.90;;;;;;5057072;28;19908;-87
2021/11/22 14:25:19;;;;;;;;;;;5.40;99.90;;;;;;5056880;28;20433;-87
2021/11/22 14:27:45;;;;;;;;;;;5.40;99.90;;;;;;5073829;28;19912;-87
2021/11/22 14:30:13;;;;;;;;;;;5.40;99.90;;;;;;5073582;28;19912;-87
2021/11/22 14:32:41;;;;;;;;;;;5.40;99.90;;;;;;5056894;28;19908;-87
2021/11/22 14:35:12;;;;;;;;;;;5.40;99.90;;;;;;5056588;28;19931;-87
2021/11/22 14:37:37;;;;;;;;;;;5.40;99.90;;;;;;5073597;28;20409;-88